KHDN

Yampa Valley Airport

Hayden, Colorado, USA
METAR KHDN 220956Z AUTO 11011KT 10SM CLR 09/01 A3002 RMK AO2 SLP095 T00890011
Observed Flight Rules
May-22 @ 09:56 UTC (17 minutes ago) Visual Flight Rules
Wind Visibility Clouds
110° at 11 knots 10 miles
  • Clear skies
Temperatures Readings
Current 9°C / 48°F
Dewpoint 1°C / 34°F
Humidity 58%
Altimeter 30.02" Hg
Pressure 1009.5 hPa
Elevation 2012
METAR KHDN 220956Z AUTO 11011KT 10SM CLR 09/01 A3002 RMK AO2 SLP095 T00890011
Observed Flight Rules
May-22 @ 09:56 UTC
(17 minutes ago)
VFR
Wind Visibility
110° at 11 knots 10 miles
Clouds
  • Clear skies
Temperature Dewpoint
9°C / 48°F 1°C / 34°F
Humidity Altimeter Pressure
58% 30.02" Hg 1009.5 hPa